createdAt,value
2023-03-24T00:01:43.669Z,3.00
2023-03-24T00:07:04.455Z,2.92
2023-03-24T00:12:25.310Z,2.72
2023-03-24T00:17:50.372Z,3.05
2023-03-24T00:23:12.347Z,1.73
2023-03-24T00:28:37.013Z,2.00
2023-03-24T00:33:57.945Z,1.38
2023-03-24T00:39:19.987Z,1.77
2023-03-24T00:44:40.616Z,1.95
2023-03-24T00:50:02.168Z,1.80
2023-03-24T00:55:23.637Z,1.48
2023-03-24T01:00:46.558Z,1.90
2023-03-24T01:06:08.985Z,1.40
2023-03-24T01:11:37.746Z,1.50
2023-03-24T01:16:59.674Z,1.48
2023-03-24T01:22:20.906Z,1.85
2023-03-24T01:27:41.767Z,1.60
2023-03-24T01:33:02.606Z,1.63
2023-03-24T01:38:23.311Z,1.52
2023-03-24T01:43:44.412Z,1.55
2023-03-24T01:49:07.660Z,1.90
2023-03-24T01:54:36.010Z,2.05
2023-03-24T02:00:06.891Z,1.92
2023-03-24T02:06:02.464Z,1.60
2023-03-24T02:11:27.025Z,2.00
2023-03-24T02:17:11.078Z,1.70
2023-03-24T02:22:47.094Z,1.30
2023-03-24T02:28:30.246Z,1.75
2023-03-24T02:34:14.048Z,1.55
2023-03-24T02:39:43.694Z,1.23
2023-03-24T02:45:23.204Z,1.55
2023-03-24T02:51:16.583Z,1.42
2023-03-24T02:56:50.068Z,1.20
2023-03-24T03:02:35.993Z,1.20
2023-03-24T03:08:01.524Z,1.42
2023-03-24T03:13:32.271Z,1.27
2023-03-24T03:19:01.549Z,1.10
2023-03-24T03:24:30.678Z,1.48
2023-03-24T03:29:56.001Z,1.35
2023-03-24T03:35:45.697Z,1.40
2023-03-24T03:41:06.814Z,1.40
2023-03-24T03:46:30.467Z,1.13
2023-03-24T03:51:54.195Z,0.80
2023-03-24T03:57:16.028Z,1.30
2023-03-24T04:02:58.638Z,0.95
2023-03-24T04:08:26.387Z,1.00
2023-03-24T04:14:17.496Z,1.50
2023-03-24T04:20:12.309Z,0.80
2023-03-24T04:25:58.743Z,0.80
2023-03-24T04:31:30.261Z,1.00
2023-03-24T04:37:04.230Z,1.15
2023-03-24T04:42:52.662Z,1.25
2023-03-24T04:48:18.860Z,0.90
2023-03-24T04:54:00.100Z,0.82
2023-03-24T04:59:21.391Z,0.98
2023-03-24T05:04:42.239Z,1.30
2023-03-24T05:10:21.803Z,1.13
2023-03-24T05:15:47.880Z,1.05
2023-03-24T05:21:17.572Z,0.88
2023-03-24T05:26:39.682Z,1.20
2023-03-24T05:32:05.932Z,1.02
2023-03-24T05:37:27.561Z,1.17
2023-03-24T05:42:50.603Z,1.00
2023-03-24T05:48:12.165Z,1.10
2023-03-24T05:53:56.215Z,1.33
2023-03-24T05:59:38.092Z,1.13
2023-03-24T06:05:31.736Z,1.10
2023-03-24T06:10:53.546Z,1.60
2023-03-24T06:16:18.994Z,1.20
2023-03-24T06:21:50.772Z,1.20
2023-03-24T06:27:18.636Z,1.20
2023-03-24T06:32:39.541Z,1.00
2023-03-24T06:38:00.572Z,1.30
2023-03-24T06:43:21.305Z,1.20
2023-03-24T06:48:43.338Z,1.17
2023-03-24T06:54:04.241Z,1.05
2023-03-24T06:59:25.018Z,1.50
2023-03-24T07:04:46.161Z,1.17
2023-03-24T07:10:19.733Z,1.10
2023-03-24T07:15:40.781Z,1.20
2023-03-24T07:21:04.258Z,1.20
2023-03-24T07:26:25.968Z,1.50
2023-03-24T07:31:58.967Z,1.50
2023-03-24T07:37:20.591Z,1.63
2023-03-24T07:42:43.535Z,1.80
2023-03-24T07:48:30.933Z,1.30
2023-03-24T07:53:52.306Z,1.27
2023-03-24T07:59:28.098Z,1.85
2023-03-24T08:05:22.241Z,2.70
2023-03-24T08:10:53.488Z,2.40
2023-03-24T08:16:14.298Z,2.50
2023-03-24T08:21:35.573Z,2.72
2023-03-24T08:26:58.759Z,2.70
2023-03-24T08:32:19.744Z,2.30
2023-03-24T08:37:43.308Z,2.15
2023-03-24T08:43:08.663Z,2.67
2023-03-24T08:48:33.390Z,2.30
2023-03-24T08:53:55.381Z,2.20
2023-03-24T08:59:16.592Z,2.00
2023-03-24T09:04:37.464Z,1.65
2023-03-24T09:09:58.583Z,1.67
2023-03-24T09:15:19.176Z,1.90
2023-03-24T09:20:39.982Z,1.42
2023-03-24T09:26:01.939Z,1.83
2023-03-24T09:31:23.117Z,1.55
2023-03-24T09:36:43.638Z,1.70
2023-03-24T09:42:18.069Z,1.40
2023-03-24T09:47:43.056Z,1.27
2023-03-24T09:53:22.394Z,1.52
2023-03-24T09:58:46.164Z,0.95
2023-03-24T10:04:20.319Z,1.10
2023-03-24T10:09:41.248Z,1.40
2023-03-24T10:15:41.276Z,1.10
2023-03-24T10:21:19.477Z,1.23
2023-03-24T10:26:43.619Z,1.00
2023-03-24T10:32:20.895Z,1.02
2023-03-24T10:37:41.714Z,3.05
2023-03-24T10:43:07.418Z,1.50
2023-03-24T10:48:39.980Z,0.95
2023-03-24T10:54:33.042Z,0.80
2023-03-24T11:00:09.922Z,0.90
2023-03-24T11:05:35.565Z,0.85
2023-03-24T11:10:56.092Z,0.70
2023-03-24T11:16:17.522Z,0.85
2023-03-24T11:21:43.153Z,1.00
2023-03-24T11:27:04.376Z,1.00
2023-03-24T11:32:28.136Z,1.00
2023-03-24T11:37:49.290Z,0.90
2023-03-24T11:43:20.920Z,0.90
2023-03-24T11:48:52.013Z,1.05
2023-03-24T11:54:17.366Z,1.08
2023-03-24T11:59:44.318Z,1.00
2023-03-24T12:05:27.196Z,0.95
2023-03-24T12:11:20.582Z,1.10
2023-03-24T12:17:03.795Z,0.90
2023-03-24T12:22:42.706Z,1.08
2023-03-24T12:28:09.656Z,0.80
2023-03-24T12:33:54.092Z,0.75
2023-03-24T12:39:21.195Z,1.00
2023-03-24T12:45:18.663Z,0.90
2023-03-24T12:50:50.603Z,0.77
2023-03-24T12:56:26.783Z,1.02
2023-03-24T13:02:43.423Z,0.85
2023-03-24T13:08:11.394Z,0.77
2023-03-24T13:13:37.689Z,0.90
2023-03-24T13:19:00.033Z,0.90
2023-03-24T13:24:21.162Z,0.60
2023-03-24T13:29:48.921Z,0.80
2023-03-24T13:35:24.165Z,0.80
2023-03-24T13:40:51.607Z,0.70
2023-03-24T13:46:13.833Z,0.47
2023-03-24T13:51:38.194Z,0.50
2023-03-24T13:57:20.716Z,0.50
2023-03-24T14:02:50.052Z,0.55
2023-03-24T14:13:36.137Z,0.65
2023-03-24T14:19:39.160Z,0.40
2023-03-24T14:25:17.778Z,0.40
2023-03-24T14:30:58.543Z,0.47
2023-03-24T14:36:33.033Z,0.45
2023-03-24T14:41:55.098Z,0.40
2023-03-24T14:47:21.069Z,0.50
2023-03-24T14:52:47.990Z,0.35
2023-03-24T14:58:35.968Z,0.32
2023-03-24T15:04:07.201Z,0.50
2023-03-24T15:09:28.189Z,0.40
2023-03-24T15:14:49.491Z,0.60
2023-03-24T15:20:35.178Z,0.47
2023-03-24T15:25:57.454Z,0.95
2023-03-24T15:31:18.644Z,0.68
2023-03-24T15:36:40.964Z,0.80
2023-03-24T15:42:09.135Z,0.68
2023-03-24T15:47:32.682Z,1.27
2023-03-24T15:53:02.773Z,0.70
2023-03-24T15:58:32.153Z,0.70
2023-03-24T16:03:54.888Z,0.80
2023-03-24T16:09:21.815Z,0.95
2023-03-24T16:14:42.754Z,0.80
2023-03-24T16:20:08.918Z,0.95
2023-03-24T16:25:29.506Z,0.63
2023-03-24T16:30:58.443Z,0.70
2023-03-24T16:36:19.295Z,0.90
2023-03-24T16:41:40.361Z,0.90
2023-03-24T16:47:01.044Z,1.20
2023-03-24T16:52:21.730Z,1.05
2023-03-24T16:57:42.570Z,0.80
2023-03-24T17:03:04.416Z,0.80
2023-03-24T17:08:25.793Z,1.13
2023-03-24T17:13:46.752Z,1.02
2023-03-24T17:19:07.571Z,0.60
2023-03-24T17:24:30.325Z,0.70
2023-03-24T17:29:51.551Z,1.02
2023-03-24T17:35:15.747Z,0.88
2023-03-24T17:40:36.717Z,0.70
2023-03-24T17:46:01.677Z,0.80
2023-03-24T17:51:22.624Z,1.05
2023-03-24T17:56:43.579Z,0.75
2023-03-24T18:02:05.542Z,0.50
2023-03-24T18:07:26.296Z,0.88
2023-03-24T18:12:46.916Z,0.60
2023-03-24T18:18:07.990Z,0.75
2023-03-24T18:23:29.802Z,0.68
2023-03-24T18:28:50.812Z,0.90
2023-03-24T18:34:11.447Z,1.00
2023-03-24T18:39:32.152Z,0.68
2023-03-24T18:44:52.736Z,0.70
2023-03-24T18:50:14.593Z,0.70
2023-03-24T18:55:35.816Z,0.82
2023-03-24T19:00:57.762Z,0.88
2023-03-24T19:06:19.002Z,0.70
2023-03-24T19:11:42.747Z,1.05
2023-03-24T19:17:04.357Z,1.08
2023-03-24T19:22:26.911Z,1.00
2023-03-24T19:27:47.825Z,0.70
2023-03-24T19:33:11.407Z,0.65
2023-03-24T19:38:32.311Z,1.20
2023-03-24T19:43:53.436Z,0.60
2023-03-24T19:49:15.908Z,0.60
2023-03-24T19:54:36.789Z,0.75
2023-03-24T19:59:57.926Z,0.60
2023-03-24T20:05:18.705Z,0.70
2023-03-24T20:10:40.231Z,0.70
2023-03-24T20:16:01.481Z,0.70
2023-03-24T20:21:23.509Z,0.90
2023-03-24T20:26:45.251Z,0.80
2023-03-24T20:32:10.598Z,0.73
2023-03-24T20:37:35.622Z,0.70
2023-03-24T20:42:57.004Z,0.80
2023-03-24T20:48:17.947Z,0.77
2023-03-24T20:53:40.780Z,0.77
2023-03-24T20:59:02.716Z,0.82
2023-03-24T21:04:23.421Z,0.63
2023-03-24T21:09:44.120Z,0.90
2023-03-24T21:15:05.349Z,0.80
2023-03-24T21:20:28.454Z,0.85
2023-03-24T21:25:49.884Z,0.95
2023-03-24T21:31:16.855Z,1.20
2023-03-24T21:36:38.574Z,1.13
2023-03-24T21:42:02.910Z,1.20
2023-03-24T21:47:25.412Z,1.20
2023-03-24T21:52:47.816Z,1.25
2023-03-24T21:58:08.796Z,1.00
2023-03-24T22:03:30.552Z,1.50
2023-03-24T22:08:53.270Z,1.40
2023-03-24T22:14:15.938Z,1.52
2023-03-24T22:19:38.109Z,1.50
2023-03-24T22:24:59.358Z,1.58
2023-03-24T22:30:20.087Z,1.10
2023-03-24T22:35:41.262Z,1.30
2023-03-24T22:41:05.039Z,1.20
2023-03-24T22:46:25.848Z,1.35
2023-03-24T22:51:46.602Z,1.08
2023-03-24T22:57:07.239Z,1.13
2023-03-24T23:02:27.972Z,1.23
2023-03-24T23:07:48.918Z,1.20
2023-03-24T23:13:10.771Z,1.10
2023-03-24T23:18:31.736Z,1.38
2023-03-24T23:23:52.390Z,1.10
2023-03-24T23:29:13.978Z,1.42
2023-03-24T23:34:36.303Z,1.20
2023-03-24T23:40:01.932Z,1.10
2023-03-24T23:45:22.710Z,1.17
2023-03-24T23:50:46.349Z,1.10
2023-03-24T23:56:09.413Z,1.15
